Time;durP1;ratioP1;P1;durP2;ratioP2;P2;SDS_P1;SDS_P2;PMS_P1;PMS_P2;Temp;Humidity;BMP_temperature;BMP_pressure;BME280_temperature;BME280_humidity;BME280_pressure;Samples;Min_cycle;Max_cycle;Signal;HPM_P1;HPM_P2
2023/12/11 00:01:03;;;;;;;2.80;0.90;;;20.90;61.00;;;;;;5080147;28;20040;-40
2023/12/11 00:03:29;;;;;;;3.15;0.98;;;20.90;60.90;;;;;;5077022;28;20025;-41
2023/12/11 00:05:56;;;;;;;1.40;0.75;;;20.90;61.20;;;;;;5070454;28;20033;-41
2023/12/11 00:08:22;;;;;;;2.17;1.08;;;20.90;61.20;;;;;;5077371;28;20025;-41
2023/12/11 00:10:48;;;;;;;3.08;0.70;;;20.90;61.30;;;;;;5076165;28;20063;-41
2023/12/11 00:13:14;;;;;;;3.63;0.85;;;21.00;61.40;;;;;;5074291;28;20029;-41
2023/12/11 00:15:40;;;;;;;5.72;0.90;;;20.90;61.00;;;;;;5071965;28;20083;-42
2023/12/11 00:18:06;;;;;;;1.67;0.70;;;21.00;61.00;;;;;;5076322;28;20028;-42
2023/12/11 00:20:33;;;;;;;1.52;0.82;;;20.90;60.90;;;;;;5081564;28;20029;-42
2023/12/11 00:22:59;;;;;;;2.15;0.75;;;20.90;61.10;;;;;;5073929;28;20017;-43
2023/12/11 00:25:27;;;;;;;3.17;0.80;;;20.90;61.20;;;;;;5075650;28;20060;-43
2023/12/11 00:27:54;;;;;;;1.08;0.60;;;20.90;61.40;;;;;;5077433;28;20282;-42
2023/12/11 00:30:20;;;;;;;1.40;0.63;;;20.90;61.30;;;;;;5081376;28;20102;-43
2023/12/11 00:32:46;;;;;;;0.75;0.60;;;20.90;61.30;;;;;;5086991;28;20036;-43
2023/12/11 00:35:12;;;;;;;0.88;0.70;;;21.00;61.10;;;;;;5076613;28;20044;-42
2023/12/11 00:37:38;;;;;;;0.80;0.50;;;20.90;61.10;;;;;;5074012;28;20112;-43
2023/12/11 00:40:23;;;;;;;1.48;0.60;;;20.90;61.10;;;;;;5081451;28;20039;-42
2023/12/11 00:42:49;;;;;;;1.02;0.52;;;20.90;61.30;;;;;;5074695;28;20494;-42
2023/12/11 00:45:15;;;;;;;0.82;0.57;;;20.90;61.50;;;;;;5078595;28;20047;-42
2023/12/11 00:47:41;;;;;;;0.60;0.40;;;20.90;61.60;;;;;;5082132;28;20025;-43
2023/12/11 00:50:08;;;;;;;0.50;0.43;;;20.90;61.50;;;;;;5076215;28;20032;-42
2023/12/11 00:52:34;;;;;;;0.80;0.50;;;20.90;61.10;;;;;;5073623;28;20040;-42
2023/12/11 00:55:01;;;;;;;0.57;0.50;;;20.90;61.00;;;;;;5074208;28;20861;-43
2023/12/11 00:57:27;;;;;;;0.60;0.50;;;20.90;60.80;;;;;;5073397;28;20043;-41
2023/12/11 00:59:53;;;;;;;1.10;0.57;;;20.90;60.90;;;;;;5079936;28;20277;-43
2023/12/11 01:02:19;;;;;;;0.65;0.65;;;20.80;61.10;;;;;;5070738;28;20031;-43
2023/12/11 01:04:45;;;;;;;0.65;0.50;;;20.80;61.00;;;;;;5066151;28;20059;-45
2023/12/11 01:07:12;;;;;;;0.68;0.47;;;20.80;60.90;;;;;;5074606;28;20033;-42
2023/12/11 01:09:38;;;;;;;0.60;0.50;;;20.90;60.60;;;;;;5067407;28;20025;-43
2023/12/11 01:12:05;;;;;;;0.57;0.40;;;20.80;60.50;;;;;;5067440;28;20032;-44
2023/12/11 01:14:31;;;;;;;0.40;0.40;;;20.80;60.60;;;;;;5080197;28;20033;-43
2023/12/11 01:16:57;;;;;;;0.50;0.50;;;20.80;60.70;;;;;;5066304;28;20089;-42
2023/12/11 01:19:23;;;;;;;0.50;0.40;;;20.80;60.90;;;;;;5075826;28;20032;-44
2023/12/11 01:21:49;;;;;;;0.50;0.40;;;20.80;60.60;;;;;;5076989;28;20021;-45
2023/12/11 01:24:15;;;;;;;1.08;0.40;;;20.80;60.50;;;;;;5077325;28;20489;-42
2023/12/11 01:26:42;;;;;;;0.60;0.50;;;20.90;60.30;;;;;;5072593;28;20159;-43
2023/12/11 01:29:08;;;;;;;0.63;0.38;;;20.80;60.10;;;;;;5079128;28;20035;-43
2023/12/11 01:31:34;;;;;;;0.40;0.40;;;20.80;60.10;;;;;;5073511;28;20052;-43
2023/12/11 01:34:00;;;;;;;0.47;0.47;;;20.80;60.20;;;;;;5066160;28;20055;-43
2023/12/11 01:36:26;;;;;;;0.30;0.30;;;20.70;60.30;;;;;;5081303;28;20025;-42
2023/12/11 01:38:53;;;;;;;0.50;0.40;;;20.70;60.20;;;;;;5077508;28;20048;-42
2023/12/11 01:41:19;;;;;;;0.50;0.40;;;20.80;60.30;;;;;;5072646;28;20123;-43
2023/12/11 01:43:55;;;;;;;0.40;0.30;;;20.80;60.00;;;;;;5075849;28;20592;-42
2023/12/11 01:46:22;;;;;;;0.30;0.22;;;20.80;59.80;;;;;;5072699;28;20031;-44
2023/12/11 01:48:49;;;;;;;1.10;0.30;;;20.80;59.80;;;;;;5073886;28;20063;-44
2023/12/11 01:51:16;;;;;;;0.30;0.30;;;20.70;59.90;;;;;;5068111;28;20055;-43
2023/12/11 01:53:44;;;;;;;;;;;20.70;60.10;;;;;;5069201;28;20029;-43
2023/12/11 01:56:10;;;;;;;0.70;0.30;;;20.80;59.90;;;;;;5077346;28;19912;-42
2023/12/11 01:58:36;;;;;;;0.40;0.30;;;20.80;59.80;;;;;;5070656;28;20036;-41
2023/12/11 02:01:02;;;;;;;0.38;0.25;;;20.80;59.60;;;;;;5076449;28;20029;-43
2023/12/11 02:03:28;;;;;;;0.47;0.40;;;20.80;59.50;;;;;;5074178;28;20056;-43
2023/12/11 02:05:54;;;;;;;0.30;0.30;;;20.70;59.50;;;;;;5074501;28;20025;-43
2023/12/11 02:08:21;;;;;;;0.30;0.30;;;20.70;59.60;;;;;;5069482;28;20033;-43
2023/12/11 02:10:47;;;;;;;0.25;0.25;;;20.70;59.70;;;;;;5070056;28;20642;-43
2023/12/11 02:13:14;;;;;;;0.40;0.40;;;20.70;59.50;;;;;;5068901;28;20037;-43
2023/12/11 02:15:41;;;;;;;0.40;0.40;;;20.80;59.40;;;;;;5073551;28;20017;-43
2023/12/11 02:18:08;;;;;;;0.40;0.40;;;20.80;59.20;;;;;;5076691;28;20035;-43
2023/12/11 02:20:35;;;;;;;;;;;20.70;59.60;;;;;;5074227;28;20036;-45
2023/12/11 02:23:03;;;;;;;0.65;0.30;;;20.70;59.70;;;;;;5073345;28;19915;-44
2023/12/11 02:25:30;;;;;;;0.30;0.28;;;20.70;59.30;;;;;;5071867;28;20089;-43
2023/12/11 02:27:57;;;;;;;;;;;20.70;59.20;;;;;;5100468;28;20386;-43
2023/12/11 02:30:23;;;;;;;0.30;0.30;;;20.70;59.20;;;;;;5071700;28;20001;-43
2023/12/11 02:32:52;;;;;;;0.30;0.30;;;20.80;59.10;;;;;;5071896;28;20052;-43
2023/12/11 02:35:18;;;;;;;0.40;0.30;;;20.70;58.80;;;;;;5069527;28;20048;-43
2023/12/11 02:37:44;;;;;;;0.40;0.30;;;20.70;58.80;;;;;;5074765;28;20063;-42
2023/12/11 02:40:11;;;;;;;0.30;0.20;;;20.60;58.80;;;;;;5075913;28;20031;-43
2023/12/11 02:42:37;;;;;;;0.20;0.20;;;20.60;58.90;;;;;;5068080;28;20037;-42
2023/12/11 02:45:03;;;;;;;0.30;0.30;;;20.70;58.90;;;;;;5071097;28;20063;-42
2023/12/11 02:47:29;;;;;;;0.50;0.30;;;20.70;58.90;;;;;;5065200;28;20021;-41
2023/12/11 02:49:55;;;;;;;0.30;0.30;;;20.70;58.70;;;;;;5073920;28;20082;-42
2023/12/11 02:52:23;;;;;;;0.75;0.30;;;20.70;58.60;;;;;;5069036;28;20032;-42
2023/12/11 02:54:49;;;;;;;0.22;0.22;;;20.60;58.60;;;;;;5067890;28;20045;-46
2023/12/11 02:57:16;;;;;;;0.28;0.25;;;20.60;58.80;;;;;;5082696;28;20032;-41
2023/12/11 02:59:42;;;;;;;3.83;0.30;;;20.60;58.70;;;;;;5070277;28;20090;-42
2023/12/11 03:02:09;;;;;;;2.33;0.30;;;20.70;58.70;;;;;;5070227;28;20029;-42
2023/12/11 03:04:35;;;;;;;1.50;0.30;;;20.70;58.70;;;;;;5074440;28;20040;-43
2023/12/11 03:07:01;;;;;;;0.47;0.17;;;20.60;58.60;;;;;;5073211;28;20025;-43
2023/12/11 03:09:27;;;;;;;0.93;0.30;;;20.60;58.70;;;;;;5068624;28;20048;-42
2023/12/11 03:11:54;;;;;;;1.33;0.10;;;20.60;58.70;;;;;;5070846;28;20029;-43
2023/12/11 03:14:20;;;;;;;0.68;0.30;;;20.60;58.80;;;;;;5068052;28;20040;-42
2023/12/11 03:16:49;;;;;;;0.22;0.20;;;20.70;58.80;;;;;;5073240;28;20494;-42
2023/12/11 03:19:18;;;;;;;0.20;0.20;;;20.70;58.70;;;;;;5076300;28;20040;-46
2023/12/11 03:21:44;;;;;;;0.25;0.20;;;20.70;58.50;;;;;;5073394;28;20056;-42
2023/12/11 03:24:10;;;;;;;0.30;0.30;;;20.60;58.30;;;;;;5070889;28;20032;-43
2023/12/11 03:26:36;;;;;;;1.10;0.22;;;20.60;58.30;;;;;;5072321;28;20032;-43
2023/12/11 03:29:03;;;;;;;0.13;0.13;;;20.60;58.40;;;;;;5072685;28;20033;-44
2023/12/11 03:31:29;;;;;;;0.52;0.30;;;20.70;58.50;;;;;;5076186;28;20072;-46
2023/12/11 03:33:55;;;;;;;0.20;0.20;;;20.70;58.40;;;;;;5072304;28;20064;-45
2023/12/11 03:36:21;;;;;;;0.20;0.20;;;20.70;58.30;;;;;;5072319;28;20028;-43
2023/12/11 03:38:47;;;;;;;0.20;0.10;;;20.60;58.00;;;;;;5069059;28;20029;-44
2023/12/11 03:41:13;;;;;;;0.20;0.20;;;20.60;57.90;;;;;;5072348;28;20029;-42
2023/12/11 03:43:39;;;;;;;0.30;0.20;;;20.60;58.00;;;;;;5068470;28;20033;-43
2023/12/11 03:46:05;;;;;;;0.20;0.20;;;20.60;58.10;;;;;;5065473;28;20033;-43
2023/12/11 03:48:31;;;;;;;0.20;0.20;;;20.70;58.20;;;;;;5074829;28;20024;-42
2023/12/11 03:50:58;;;;;;;0.28;0.28;;;20.70;58.00;;;;;;5072692;28;20125;-42
2023/12/11 03:53:24;;;;;;;0.20;0.20;;;20.60;57.80;;;;;;5068478;28;20044;-42
2023/12/11 03:55:52;;;;;;;0.40;0.20;;;20.60;57.60;;;;;;5069402;28;20031;-42
2023/12/11 03:58:18;;;;;;;0.40;0.32;;;20.60;57.80;;;;;;5079550;28;20036;-43
2023/12/11 04:00:45;;;;;;;0.30;0.30;;;20.60;57.80;;;;;;5080373;28;20156;-41
2023/12/11 04:03:11;;;;;;;0.28;0.28;;;20.60;57.90;;;;;;5071177;28;20025;-41
2023/12/11 04:05:37;;;;;;;0.43;0.25;;;20.70;57.80;;;;;;5077502;28;20021;-41
2023/12/11 04:08:03;;;;;;;2.53;0.40;;;20.60;57.60;;;;;;5072645;28;20618;-40
2023/12/11 04:10:30;;;;;;;2.47;0.40;;;20.60;57.50;;;;;;5068344;28;20033;-40
2023/12/11 04:12:59;;;;;;;2.80;0.35;;;20.60;57.70;;;;;;5076331;28;20024;-43
2023/12/11 04:15:25;;;;;;;1.35;0.30;;;20.80;57.40;;;;;;5073289;28;20051;-41
2023/12/11 04:17:52;;;;;;;10.10;0.50;;;20.90;57.00;;;;;;5076396;28;20024;-42
2023/12/11 04:20:18;;;;;;;3.00;0.38;;;21.00;57.40;;;;;;5072625;28;20513;-41
2023/12/11 04:22:44;;;;;;;1.55;0.30;;;21.00;57.40;;;;;;5073656;28;20033;-41
2023/12/11 04:25:10;;;;;;;2.00;0.30;;;21.00;57.20;;;;;;5079580;28;20029;-40
2023/12/11 04:27:36;;;;;;;2.40;0.30;;;21.10;57.10;;;;;;5075839;28;20061;-42
2023/12/11 04:30:04;;;;;;;0.52;0.25;;;21.20;56.80;;;;;;5075019;28;20033;-40
2023/12/11 04:32:30;;;;;;;2.83;0.30;;;21.30;56.50;;;;;;5076170;28;20033;-41
2023/12/11 04:34:56;;;;;;;0.25;0.20;;;21.30;56.60;;;;;;5074254;28;20037;-45
2023/12/11 04:37:23;;;;;;;0.50;0.13;;;21.40;56.70;;;;;;5074558;28;20123;-41
2023/12/11 04:39:49;;;;;;;0.22;0.20;;;21.40;56.50;;;;;;5070608;28;20108;-40
2023/12/11 04:42:15;;;;;;;0.28;0.20;;;21.40;56.40;;;;;;5075992;28;20092;-42
2023/12/11 04:44:41;;;;;;;0.22;0.20;;;21.40;56.10;;;;;;5078437;28;20027;-43
2023/12/11 04:47:07;;;;;;;0.75;0.20;;;21.50;55.60;;;;;;5070133;28;20025;-41
2023/12/11 04:49:33;;;;;;;0.90;0.30;;;21.60;55.80;;;;;;5072583;28;20021;-41
2023/12/11 04:51:59;;;;;;;1.10;0.20;;;21.60;55.70;;;;;;5073744;28;20033;-41
2023/12/11 04:54:26;;;;;;;0.60;0.30;;;21.60;55.70;;;;;;5073395;28;20047;-41
2023/12/11 04:56:52;;;;;;;0.10;0.10;;;21.60;55.30;;;;;;5076176;28;20033;-42
2023/12/11 04:59:18;;;;;;;0.45;0.20;;;21.60;55.40;;;;;;5075542;28;20056;-42
2023/12/11 05:01:44;;;;;;;0.20;0.20;;;21.70;55.00;;;;;;5075554;28;20059;-41
2023/12/11 05:04:10;;;;;;;1.58;0.20;;;21.80;54.80;;;;;;5071671;28;20040;-40
2023/12/11 05:06:36;;;;;;;0.10;0.10;;;21.80;54.90;;;;;;5074765;28;20033;-41
2023/12/11 05:09:02;;;;;;;0.20;0.15;;;21.80;55.00;;;;;;5075746;28;20037;-41
2023/12/11 05:11:28;;;;;;;0.63;0.20;;;21.80;54.80;;;;;;5073763;28;20127;-42
2023/12/11 05:13:55;;;;;;;0.47;0.20;;;21.80;54.70;;;;;;5075379;28;20041;-41
2023/12/11 05:16:21;;;;;;;0.65;0.20;;;21.80;54.70;;;;;;5070799;28;20020;-41
2023/12/11 05:18:47;;;;;;;0.10;0.10;;;21.90;54.20;;;;;;5074259;28;20047;-41
2023/12/11 05:21:13;;;;;;;0.32;0.20;;;22.00;54.20;;;;;;5073866;28;20029;-41
2023/12/11 05:23:39;;;;;;;0.45;0.20;;;22.00;54.30;;;;;;5083219;28;20078;-41
2023/12/11 05:26:05;;;;;;;1.15;0.20;;;21.90;54.10;;;;;;5080089;28;20025;-40
2023/12/11 05:28:31;;;;;;;0.20;0.20;;;21.90;53.90;;;;;;5074270;28;20055;-40
2023/12/11 05:30:58;;;;;;;0.20;0.20;;;21.90;54.00;;;;;;5077523;28;20056;-43
2023/12/11 05:33:24;;;;;;;0.10;0.10;;;21.90;53.90;;;;;;5080330;28;20052;-41
2023/12/11 05:35:50;;;;;;;0.17;0.10;;;22.00;53.50;;;;;;5078219;28;20020;-42
2023/12/11 05:38:16;;;;;;;0.20;0.10;;;22.10;54.20;;;;;;5079569;28;20032;-42
2023/12/11 05:40:42;;;;;;;0.10;0.10;;;22.10;53.50;;;;;;5073994;28;20035;-41
2023/12/11 05:43:09;;;;;;;0.10;0.10;;;22.10;53.60;;;;;;5077038;28;20041;-41
2023/12/11 05:45:35;;;;;;;0.20;0.20;;;22.00;53.50;;;;;;5072278;28;20028;-45
2023/12/11 05:48:01;;;;;;;0.20;0.20;;;22.00;53.40;;;;;;5081560;28;20082;-42
2023/12/11 05:50:28;;;;;;;0.60;0.10;;;22.10;53.30;;;;;;5067405;28;20025;-40
2023/12/11 05:52:54;;;;;;;3.00;0.20;;;22.20;53.00;;;;;;5073913;28;20055;-40
2023/12/11 05:55:20;;;;;;;0.15;0.10;;;22.20;53.20;;;;;;5074958;28;20036;-39
2023/12/11 05:57:46;;;;;;;0.30;0.10;;;22.20;53.10;;;;;;5082134;28;20060;-39
2023/12/11 06:00:12;;;;;;;0.20;0.17;;;22.20;53.20;;;;;;5070907;28;20025;-39
2023/12/11 06:02:39;;;;;;;;;;;22.10;53.00;;;;;;5077600;28;20035;-41
2023/12/11 06:05:08;;;;;;;0.30;0.20;;;22.10;53.00;;;;;;5066026;28;20346;-39
2023/12/11 06:07:34;;;;;;;0.30;0.10;;;22.20;53.10;;;;;;5072261;28;20033;-42
2023/12/11 06:10:01;;;;;;;0.63;0.20;;;22.20;52.80;;;;;;5066972;28;20556;-39
2023/12/11 06:12:27;;;;;;;1.05;0.20;;;22.20;53.00;;;;;;5071726;28;20069;-39
2023/12/11 06:14:54;;;;;;;1.67;0.20;;;22.20;53.00;;;;;;5073883;28;20044;-39
2023/12/11 06:17:20;;;;;;;0.40;0.20;;;22.20;52.80;;;;;;5073295;28;20801;-40
2023/12/11 06:19:46;;;;;;;1.55;0.17;;;22.20;52.80;;;;;;5073093;28;20149;-40
2023/12/11 06:22:12;;;;;;;0.20;0.20;;;22.20;52.70;;;;;;5068815;28;20062;-40
2023/12/11 06:24:39;;;;;;;0.10;0.10;;;22.20;53.00;;;;;;5071544;28;20029;-39
2023/12/11 06:27:05;;;;;;;0.20;0.20;;;22.30;52.30;;;;;;5073552;28;20064;-39
2023/12/11 06:29:31;;;;;;;1.85;0.10;;;22.30;52.30;;;;;;5069854;28;20124;-39
2023/12/11 06:31:58;;;;;;;0.20;0.10;;;22.30;52.40;;;;;;5069516;28;20068;-40
2023/12/11 06:34:24;;;;;;;0.20;0.10;;;22.30;52.40;;;;;;5071432;28;20063;-40
2023/12/11 06:36:50;;;;;;;0.20;0.20;;;22.20;52.30;;;;;;5068674;28;20025;-40
2023/12/11 06:39:16;;;;;;;0.30;0.10;;;22.20;52.20;;;;;;5072537;28;20037;-41
2023/12/11 06:41:43;;;;;;;0.10;0.10;;;22.30;51.80;;;;;;5072813;28;20043;-39
2023/12/11 06:44:09;;;;;;;0.75;0.10;;;22.30;51.90;;;;;;5069045;28;20033;-40
2023/12/11 06:46:36;;;;;;;0.20;0.20;;;22.30;51.90;;;;;;5071598;28;20032;-40
2023/12/11 06:49:02;;;;;;;;;;;22.30;52.10;;;;;;5077865;28;20168;-40
2023/12/11 06:51:31;;;;;;;0.10;0.10;;;22.30;52.00;;;;;;5070436;28;20393;-40
2023/12/11 06:54:00;;;;;;;1.08;0.10;;;22.30;52.00;;;;;;5070423;28;20041;-40
2023/12/11 06:56:27;;;;;;;0.25;0.10;;;22.30;51.80;;;;;;5070307;28;20613;-41
2023/12/11 06:58:53;;;;;;;0.15;0.15;;;22.40;51.50;;;;;;5100141;28;20083;-40
2023/12/11 07:01:20;;;;;;;0.20;0.20;;;22.40;51.60;;;;;;5070787;28;20028;-41
2023/12/11 07:03:48;;;;;;;0.20;0.10;;;22.40;51.70;;;;;;5069162;28;20058;-40
2023/12/11 07:06:17;;;;;;;0.20;0.20;;;22.30;51.70;;;;;;5067979;28;20232;-40
2023/12/11 07:08:43;;;;;;;0.10;0.10;;;22.30;51.60;;;;;;5067393;28;20119;-41
2023/12/11 07:11:09;;;;;;;0.55;0.22;;;22.30;51.50;;;;;;5072350;28;20048;-40
2023/12/11 07:13:35;;;;;;;0.20;0.10;;;22.30;51.10;;;;;;5069564;28;20068;-41
2023/12/11 07:16:01;;;;;;;0.10;0.00;;;22.40;51.10;;;;;;5074570;28;20028;-40
2023/12/11 07:18:27;;;;;;;0.10;0.10;;;22.40;51.30;;;;;;5069951;28;20039;-40
2023/12/11 07:20:53;;;;;;;0.10;0.10;;;22.40;51.40;;;;;;5069757;28;20529;-41
2023/12/11 07:23:20;;;;;;;0.10;0.10;;;22.30;51.30;;;;;;5074411;28;20032;-40
2023/12/11 07:25:47;;;;;;;0.10;0.10;;;22.30;51.30;;;;;;5079439;28;20028;-41
2023/12/11 07:28:13;;;;;;;0.30;0.10;;;22.30;51.10;;;;;;5076703;28;20036;-40
2023/12/11 07:30:39;;;;;;;0.25;0.20;;;22.40;50.90;;;;;;5070563;28;20078;-41
2023/12/11 07:33:06;;;;;;;0.98;0.20;;;22.40;51.00;;;;;;5071751;28;20110;-40
2023/12/11 07:35:32;;;;;;;0.30;0.10;;;22.40;51.10;;;;;;5069719;28;20078;-41
2023/12/11 07:37:58;;;;;;;0.10;0.10;;;22.40;51.10;;;;;;5069603;28;20036;-40
2023/12/11 07:40:24;;;;;;;0.20;0.15;;;22.30;51.00;;;;;;5075048;28;20032;-40
2023/12/11 07:42:50;;;;;;;0.10;0.10;;;22.30;50.90;;;;;;5071832;28;20409;-42
2023/12/11 07:45:16;;;;;;;0.10;0.10;;;22.40;50.60;;;;;;5070288;28;20040;-40
2023/12/11 07:47:43;;;;;;;0.13;0.13;;;22.40;50.60;;;;;;5072775;28;20033;-41
2023/12/11 07:50:09;;;;;;;0.10;0.10;;;22.40;50.80;;;;;;5074707;28;20038;-40
2023/12/11 07:52:35;;;;;;;0.30;0.10;;;22.40;50.80;;;;;;5070630;28;20031;-41
2023/12/11 07:55:01;;;;;;;0.10;0.10;;;22.40;50.90;;;;;;5072746;28;20041;-42
2023/12/11 07:57:28;;;;;;;0.10;0.10;;;22.30;50.80;;;;;;5073059;28;20079;-40
2023/12/11 07:59:54;;;;;;;0.47;0.10;;;22.40;50.50;;;;;;5101446;28;20055;-40
2023/12/11 08:02:20;;;;;;;0.40;0.17;;;22.40;50.50;;;;;;5068922;28;20091;-41
2023/12/11 08:04:46;;;;;;;0.40;0.10;;;22.40;50.50;;;;;;5070883;28;20043;-41
2023/12/11 08:07:13;;;;;;;0.10;0.10;;;22.40;50.60;;;;;;5065285;28;20032;-40
2023/12/11 08:09:40;;;;;;;0.10;0.10;;;22.40;50.60;;;;;;5078215;28;20043;-40
2023/12/11 08:12:06;;;;;;;0.20;0.10;;;22.40;50.60;;;;;;5076306;28;20040;-40
2023/12/11 08:14:32;;;;;;;0.22;0.20;;;22.40;50.50;;;;;;5073218;28;20056;-40
2023/12/11 08:16:59;;;;;;;0.03;0.03;;;22.50;50.30;;;;;;5086009;28;20056;-40
2023/12/11 08:19:25;;;;;;;0.20;0.20;;;22.50;50.40;;;;;;5086121;28;20030;-40
2023/12/11 08:21:52;;;;;;;1.00;0.20;;;22.50;50.40;;;;;;5083536;28;20291;-40
2023/12/11 08:24:18;;;;;;;;;;;22.50;50.20;;;;;;5084023;28;20555;-44
2023/12/11 08:26:46;;;;;;;2.13;0.10;;;22.40;50.20;;;;;;5074262;28;20415;-43
2023/12/11 08:29:12;;;;;;;8.23;1.35;;;22.40;50.00;;;;;;5071325;28;20032;-40
2023/12/11 08:31:38;;;;;;;6.53;1.10;;;22.40;50.00;;;;;;5072656;28;20036;-42
2023/12/11 08:34:05;;;;;;;1.98;0.60;;;22.50;50.00;;;;;;5086149;28;20044;-41
2023/12/11 08:36:31;;;;;;;0.60;0.40;;;22.50;50.10;;;;;;5076238;28;20028;-40
2023/12/11 08:38:57;;;;;;;1.70;0.43;;;22.50;50.20;;;;;;5079053;28;20296;-44
2023/12/11 08:41:23;;;;;;;0.32;0.30;;;22.40;50.20;;;;;;5078798;28;20025;-41
2023/12/11 08:43:49;;;;;;;0.45;0.40;;;22.40;50.10;;;;;;5073311;28;20119;-42
2023/12/11 08:46:16;;;;;;;0.30;0.30;;;22.40;50.00;;;;;;5079260;28;20027;-42
2023/12/11 08:48:44;;;;;;;0.68;0.40;;;22.50;49.80;;;;;;5071348;28;20036;-43
2023/12/11 08:51:10;;;;;;;0.57;0.40;;;22.50;49.90;;;;;;5073946;28;20035;-40
2023/12/11 08:53:36;;;;;;;0.52;0.30;;;22.50;50.00;;;;;;5073952;28;20033;-41
2023/12/11 08:56:02;;;;;;;1.10;0.30;;;22.50;50.00;;;;;;5081427;28;20055;-41
2023/12/11 08:58:28;;;;;;;0.40;0.30;;;22.40;49.90;;;;;;5077532;28;20056;-42
2023/12/11 09:00:55;;;;;;;0.35;0.28;;;22.40;49.80;;;;;;5072345;28;20037;-42
2023/12/11 09:03:21;;;;;;;0.30;0.20;;;22.50;49.70;;;;;;5078569;28;20036;-42
2023/12/11 09:05:47;;;;;;;0.30;0.28;;;22.50;49.70;;;;;;5072847;28;20024;-42
2023/12/11 09:08:13;;;;;;;0.30;0.20;;;22.50;49.80;;;;;;5076983;28;20028;-41
2023/12/11 09:10:40;;;;;;;0.32;0.17;;;22.50;49.90;;;;;;5074543;28;20055;-41
2023/12/11 09:13:07;;;;;;;0.38;0.22;;;22.40;49.80;;;;;;5069768;28;20041;-42
2023/12/11 09:15:33;;;;;;;0.30;0.30;;;22.40;49.70;;;;;;5079784;28;20036;-44
2023/12/11 09:17:59;;;;;;;0.85;0.30;;;22.50;49.50;;;;;;5076937;28;20029;-41
2023/12/11 09:20:25;;;;;;;0.40;0.20;;;22.50;49.60;;;;;;5075848;28;20033;-41
2023/12/11 09:22:51;;;;;;;0.35;0.20;;;22.50;49.70;;;;;;5069895;28;20482;-41
2023/12/11 09:25:18;;;;;;;1.38;0.20;;;22.50;49.80;;;;;;5085607;28;20059;-42
2023/12/11 09:27:44;;;;;;;0.20;0.20;;;22.40;49.70;;;;;;5072586;28;20024;-42
2023/12/11 09:30:10;;;;;;;0.85;0.20;;;22.40;49.50;;;;;;5076768;28;20032;-40
2023/12/11 09:32:37;;;;;;;1.55;0.20;;;22.40;49.40;;;;;;5072029;28;20037;-43
2023/12/11 09:35:04;;;;;;;0.27;0.20;;;22.40;49.50;;;;;;5078129;28;20092;-41
2023/12/11 09:37:30;;;;;;;0.20;0.20;;;22.20;49.70;;;;;;5075462;28;20028;-40
2023/12/11 09:39:56;;;;;;;0.43;0.17;;;22.10;49.80;;;;;;5074126;28;20116;-44
2023/12/11 09:42:22;;;;;;;0.75;0.20;;;21.90;49.80;;;;;;5073332;28;20017;-41
2023/12/11 09:44:48;;;;;;;1.55;0.22;;;21.90;50.10;;;;;;5101940;27;20370;-40
2023/12/11 09:47:43;;;;;;;0.28;0.20;;;21.90;50.10;;;;;;5081806;28;20028;-40
2023/12/11 09:50:10;;;;;;;0.20;0.20;;;21.90;50.10;;;;;;5076070;28;20048;-42
2023/12/11 09:52:40;;;;;;;0.35;0.20;;;21.80;50.20;;;;;;5080819;28;20031;-40
2023/12/11 09:55:07;;;;;;;0.60;0.28;;;21.60;50.00;;;;;;5072883;28;20401;-39
2023/12/11 09:57:33;;;;;;;0.35;0.28;;;21.50;50.10;;;;;;5082450;28;20031;-46
2023/12/11 10:00:00;;;;;;;0.20;0.20;;;21.50;50.30;;;;;;5068262;28;20033;-41
2023/12/11 10:02:27;;;;;;;0.53;0.30;;;21.50;50.20;;;;;;5073684;28;20285;-40
2023/12/11 10:05:09;;;;;;;0.55;0.40;;;21.50;50.20;;;;;;5070254;28;20043;-41
2023/12/11 10:07:36;;;;;;;0.68;0.40;;;21.40;50.30;;;;;;5075392;28;20041;-40
2023/12/11 10:10:21;;;;;;;;;;;21.40;50.30;;;;;;5071462;28;20020;-40
2023/12/11 10:12:48;;;;;;;0.75;0.47;;;21.30;50.60;;;;;;5073368;28;19916;-40
2023/12/11 10:15:27;;;;;;;0.85;0.50;;;21.30;50.60;;;;;;5072988;28;20340;-41
2023/12/11 10:18:07;;;;;;;1.10;0.63;;;21.30;50.60;;;;;;5071059;28;20032;-40
2023/12/11 10:20:34;;;;;;;1.15;0.68;;;21.40;50.50;;;;;;5073411;28;20024;-40
2023/12/11 10:23:17;;;;;;;1.35;0.80;;;21.30;50.50;;;;;;5074149;28;20786;-41
2023/12/11 10:25:48;;;;;;;1.63;0.90;;;21.10;50.50;;;;;;5074364;28;20071;-44
2023/12/11 10:28:16;;;;;;;1.10;0.80;;;21.10;50.80;;;;;;5078073;28;20595;-40
2023/12/11 10:30:56;;;;;;;1.40;0.70;;;21.10;50.90;;;;;;5079504;28;20109;-40
2023/12/11 10:33:23;;;;;;;1.60;0.85;;;21.10;50.70;;;;;;5080735;28;20387;-40
2023/12/11 10:35:49;;;;;;;2.60;1.00;;;21.20;50.70;;;;;;5080595;28;20033;-40
2023/12/11 10:38:22;;;;;;;1.70;1.00;;;21.10;50.90;;;;;;5083371;28;20024;-43
2023/12/11 10:40:49;;;;;;;1.75;1.10;;;21.00;50.80;;;;;;5072803;28;20025;-40
2023/12/11 10:43:16;;;;;;;1.65;1.15;;;21.00;51.00;;;;;;5076250;28;20033;-41
2023/12/11 10:45:42;;;;;;;1.60;1.00;;;21.00;51.10;;;;;;5073190;28;20048;-42
2023/12/11 10:48:08;;;;;;;1.40;1.10;;;21.00;50.90;;;;;;5077275;28;20051;-40
2023/12/11 10:50:35;;;;;;;1.38;0.90;;;21.00;50.90;;;;;;5080080;28;20036;-40
2023/12/11 10:53:02;;;;;;;1.52;0.82;;;20.90;50.80;;;;;;5074723;28;20019;-41
2023/12/11 10:55:29;;;;;;;1.55;0.93;;;20.90;50.90;;;;;;5071740;28;20091;-41
2023/12/11 10:57:59;;;;;;;1.05;0.88;;;20.90;51.10;;;;;;5076045;28;20551;-41
2023/12/11 11:00:25;;;;;;;1.80;0.90;;;20.90;51.10;;;;;;5073903;28;20032;-40
2023/12/11 11:02:52;;;;;;;2.15;0.80;;;20.90;51.00;;;;;;5075031;28;20081;-40
2023/12/11 11:05:19;;;;;;;;;;;20.90;51.00;;;;;;5101299;28;20078;-41
2023/12/11 11:07:55;;;;;;;1.05;0.68;;;20.90;51.00;;;;;;5076564;28;19919;-40
2023/12/11 11:10:23;;;;;;;1.23;0.80;;;20.80;51.20;;;;;;5078706;28;20033;-40
2023/12/11 11:13:02;;;;;;;1.27;0.75;;;20.80;51.40;;;;;;5074631;28;20028;-41
2023/12/11 11:15:29;;;;;;;1.27;0.63;;;20.80;51.10;;;;;;5077064;28;20158;-41
2023/12/11 11:18:02;;;;;;;1.63;0.63;;;20.80;51.00;;;;;;5069442;28;20028;-40
2023/12/11 11:20:29;;;;;;;1.10;0.70;;;20.90;51.10;;;;;;5072944;28;20031;-41
2023/12/11 11:23:17;;;;;;;0.98;0.70;;;20.80;51.10;;;;;;5072671;28;20059;-40
2023/12/11 11:25:50;;;;;;;0.68;0.40;;;20.70;51.20;;;;;;5074221;28;20029;-40
2023/12/11 11:28:40;;;;;;;0.70;0.40;;;20.70;51.30;;;;;;5071618;28;20098;-43
2023/12/11 11:31:09;;;;;;;1.65;0.63;;;20.80;51.20;;;;;;5074273;28;20028;-42
2023/12/11 11:33:49;;;;;;;0.65;0.52;;;20.80;51.10;;;;;;5072687;28;20052;-39
2023/12/11 11:36:17;;;;;;;0.50;0.40;;;20.80;51.00;;;;;;5075632;28;20037;-41
2023/12/11 11:38:57;;;;;;;0.60;0.50;;;20.70;51.20;;;;;;5072632;28;20041;-41
2023/12/11 11:41:27;;;;;;;1.23;0.50;;;20.70;51.40;;;;;;5072778;28;20044;-41
2023/12/11 11:44:00;;;;;;;0.70;0.50;;;20.70;51.20;;;;;;5077476;28;20039;-40
2023/12/11 11:46:27;;;;;;;0.65;0.52;;;20.80;51.20;;;;;;5075946;28;20035;-40
2023/12/11 11:48:53;;;;;;;0.73;0.47;;;20.80;51.10;;;;;;5076161;28;20025;-40
2023/12/11 11:51:23;;;;;;;0.95;0.50;;;20.70;51.10;;;;;;5074299;28;20076;-40
2023/12/11 11:53:54;;;;;;;0.65;0.45;;;20.60;51.30;;;;;;5078160;28;20044;-41
2023/12/11 11:56:20;;;;;;;0.70;0.50;;;20.60;51.30;;;;;;5072573;28;20024;-42
2023/12/11 11:58:46;;;;;;;0.65;0.50;;;20.70;51.00;;;;;;5079237;28;20120;-40
2023/12/11 12:01:12;;;;;;;0.30;0.25;;;20.70;51.10;;;;;;5077733;28;20029;-40
2023/12/11 12:03:40;;;;;;;0.88;0.40;;;20.70;51.20;;;;;;5076671;28;20033;-41
2023/12/11 12:06:07;;;;;;;4.40;0.50;;;20.60;51.10;;;;;;5079496;28;20046;-40
2023/12/11 12:08:36;;;;;;;0.80;0.50;;;20.60;51.30;;;;;;5063750;28;20025;-40
2023/12/11 12:11:03;;;;;;;0.85;0.50;;;20.60;51.40;;;;;;5077255;28;20555;-40
2023/12/11 12:13:39;;;;;;;0.77;0.43;;;20.60;51.10;;;;;;5071649;28;20045;-40
2023/12/11 12:16:05;;;;;;;0.40;0.30;;;20.70;51.20;;;;;;5073834;28;20057;-41
2023/12/11 12:18:32;;;;;;;0.30;0.30;;;20.60;51.10;;;;;;5070740;28;20036;-41
2023/12/11 12:21:09;;;;;;;1.23;0.40;;;20.60;51.20;;;;;;5072766;28;20055;-42
2023/12/11 12:23:35;;;;;;;0.45;0.30;;;20.50;51.30;;;;;;5079210;28;20036;-42
2023/12/11 12:26:02;;;;;;;0.68;0.32;;;20.60;51.30;;;;;;5078612;28;20033;-42
2023/12/11 12:28:28;;;;;;;0.60;0.43;;;20.60;51.10;;;;;;5075279;28;20050;-42
2023/12/11 12:30:54;;;;;;;0.80;0.43;;;20.60;51.20;;;;;;5077709;28;20032;-42
2023/12/11 12:33:20;;;;;;;0.50;0.50;;;20.60;51.10;;;;;;5084963;28;20052;-43
2023/12/11 12:35:48;;;;;;;0.40;0.38;;;20.50;51.10;;;;;;5073713;28;20040;-40
2023/12/11 12:38:15;;;;;;;0.38;0.30;;;20.50;51.20;;;;;;5073590;28;20021;-41
2023/12/11 12:40:41;;;;;;;0.80;0.40;;;20.50;51.20;;;;;;5076380;28;20021;-41
2023/12/11 12:43:13;;;;;;;0.45;0.32;;;20.60;51.10;;;;;;5082722;28;20477;-41
2023/12/11 12:45:40;;;;;;;0.50;0.38;;;20.50;51.10;;;;;;5082021;28;20068;-40
2023/12/11 12:48:08;;;;;;;0.50;0.40;;;20.50;51.00;;;;;;5071456;28;20088;-41